createdAt,value
2019-05-15T00:03:49.226Z,70
2019-05-15T00:08:48.064Z,70.2
2019-05-15T00:13:48.392Z,70.5
2019-05-15T00:18:48.658Z,70.5
2019-05-15T00:23:50.316Z,70.5
2019-05-15T00:28:50.313Z,70.8
2019-05-15T00:33:50.950Z,70.9
2019-05-15T00:38:50.397Z,71.2
2019-05-15T00:43:50.519Z,71.7
2019-05-15T00:48:52.798Z,71.7
2019-05-15T00:53:53.152Z,71.8
2019-05-15T00:58:53.153Z,71.9
2019-05-15T01:03:53.286Z,72.2
2019-05-15T01:08:53.534Z,72.4
2019-05-15T01:13:58.621Z,72.6
2019-05-15T01:18:58.751Z,72.6
2019-05-15T01:23:59.023Z,72.6
2019-05-15T01:28:58.539Z,73.1
2019-05-15T01:33:59.322Z,72.8
2019-05-15T01:39:02.245Z,73
2019-05-15T01:44:02.504Z,73.2
2019-05-15T01:49:02.457Z,73.3
2019-05-15T01:54:02.540Z,73.5
2019-05-15T01:59:02.480Z,73.7
2019-05-15T02:04:02.482Z,73.6
2019-05-15T02:09:02.507Z,73.8
2019-05-15T02:14:02.486Z,73.9
2019-05-15T02:19:02.491Z,73.9
2019-05-15T02:24:02.747Z,73.9
2019-05-15T02:29:02.719Z,74.1
2019-05-15T02:34:02.917Z,74.3
2019-05-15T02:39:03.004Z,74.5
2019-05-15T02:44:03.023Z,74.5
2019-05-15T02:49:03.019Z,74.8
2019-05-15T02:54:03.001Z,74.8
2019-05-15T02:59:08.988Z,75
2019-05-15T03:04:09.030Z,74.9
2019-05-15T03:09:09.124Z,75
2019-05-15T03:14:08.504Z,75.2
2019-05-15T03:19:06.014Z,75.2
2019-05-15T03:24:05.989Z,75.5
2019-05-15T03:34:14.442Z,75.7
2019-05-15T03:39:09.500Z,75.8
2019-05-15T03:49:13.495Z,76.2
2019-05-15T03:54:14.909Z,76.4
2019-05-15T03:59:14.811Z,76.3
2019-05-15T04:04:38.788Z,76.4
2019-05-15T04:10:02.258Z,76.5
2019-05-15T04:15:04.552Z,76.8
2019-05-15T04:20:04.501Z,76.7
2019-05-15T04:25:04.517Z,76.8
2019-05-15T04:30:04.500Z,76.9
2019-05-15T04:35:04.506Z,77.1
2019-05-15T04:40:04.485Z,77.4
2019-05-15T04:45:05.208Z,77.7
2019-05-15T04:50:11.025Z,78.1
2019-05-15T04:55:22.771Z,78.1
2019-05-15T05:00:22.715Z,77.7
2019-05-15T05:05:22.717Z,78
2019-05-15T05:10:24.332Z,78
2019-05-15T05:15:25.794Z,78.5
2019-05-15T05:20:33.410Z,78.8
2019-05-15T05:25:34.369Z,79.4
2019-05-15T05:37:35.006Z,80.6
2019-05-15T05:42:07.769Z,80.1
2019-05-15T05:47:05.692Z,79.7
2019-05-15T05:52:07.822Z,79.4
2019-05-15T05:57:08.581Z,79.5
2019-05-15T06:02:08.146Z,79.9
2019-05-15T06:07:13.210Z,79
2019-05-15T06:12:07.906Z,75.5
2019-05-15T06:17:08.933Z,73.7
2019-05-15T06:22:08.729Z,73.3
2019-05-15T06:27:32.975Z,72.4
2019-05-15T06:32:34.971Z,70.6
2019-05-15T06:37:34.969Z,70.5
2019-05-15T06:42:34.910Z,69
2019-05-15T06:47:34.902Z,66.3
2019-05-15T06:52:34.930Z,65.1
2019-05-15T06:57:34.913Z,63.5
2019-05-15T07:02:34.900Z,62.9
2019-05-15T07:07:34.902Z,63
2019-05-15T07:12:34.978Z,62.2
2019-05-15T07:17:34.908Z,60.1
2019-05-15T07:22:34.909Z,57.5
2019-05-15T07:27:34.900Z,57.4
2019-05-15T07:32:34.912Z,55.8
2019-05-15T07:37:34.972Z,52.6
2019-05-15T07:42:35.209Z,49.3
2019-05-15T07:47:35.160Z,50.3
2019-05-15T07:52:35.165Z,51.3
2019-05-15T07:57:35.171Z,49.4
2019-05-15T08:02:35.161Z,49.5
2019-05-15T08:07:35.452Z,50.8
2019-05-15T08:12:35.480Z,46.7
2019-05-15T08:17:54.620Z,49.2
2019-05-15T08:22:38.237Z,46.6
2019-05-15T08:27:38.208Z,45.2
2019-05-15T08:32:40.114Z,43.3
2019-05-15T08:37:40.107Z,42
2019-05-15T08:42:41.910Z,40.5
2019-05-15T08:47:40.397Z,39
2019-05-15T08:52:41.184Z,38
2019-05-15T08:57:44.776Z,33.1
2019-05-15T09:02:44.698Z,32.2
2019-05-15T09:07:45.314Z,28
2019-05-15T09:12:44.757Z,32.2
2019-05-15T09:17:45.005Z,32
2019-05-15T09:22:45.294Z,29.3
2019-05-15T09:27:45.948Z,27.5
2019-05-15T09:32:48.135Z,27.1
2019-05-15T09:37:48.795Z,29
2019-05-15T09:42:48.664Z,25.5
2019-05-15T09:47:48.704Z,25.7
2019-05-15T09:52:50.046Z,25.3
2019-05-15T09:58:20.073Z,25.2
2019-05-15T10:10:45.818Z,25.9
2019-05-15T10:17:33.414Z,25.9
2019-05-15T10:22:58.987Z,25.6
2019-05-15T10:28:44.789Z,24.4
2019-05-15T10:34:01.033Z,24.8
2019-05-15T10:40:39.415Z,28.2
2019-05-15T10:52:05.290Z,29.6
2019-05-15T10:57:00.772Z,28.3
2019-05-15T11:02:33.867Z,30.6
2019-05-15T11:07:58.843Z,28.9
2019-05-15T11:12:58.095Z,23.4
2019-05-15T11:17:58.585Z,26.9
2019-05-15T11:22:59.167Z,28
2019-05-15T11:27:59.119Z,24.9
2019-05-15T11:33:09.312Z,25.3
2019-05-15T11:38:09.547Z,27.7
2019-05-15T11:48:08.459Z,26.4
2019-05-15T11:53:08.603Z,26.8
2019-05-15T12:03:13.611Z,26.3
2019-05-15T12:08:14.790Z,25.7
2019-05-15T12:13:15.096Z,26.3
2019-05-15T12:18:14.973Z,22.8
2019-05-15T12:23:15.252Z,22.3
2019-05-15T12:28:15.501Z,24.2
2019-05-15T12:33:18.147Z,20.9
2019-05-15T12:38:18.531Z,19.2
2019-05-15T13:03:20.650Z,20.8
2019-05-15T13:08:21.927Z,22.7
2019-05-15T13:13:21.983Z,21.1
2019-05-15T13:18:28.520Z,20.1
2019-05-15T13:23:28.373Z,20.4
2019-05-15T13:28:28.764Z,22.4
2019-05-15T13:33:26.895Z,22.8
2019-05-15T13:38:28.565Z,24.3
2019-05-15T13:43:28.767Z,24.3
2019-05-15T13:48:29.230Z,24.2
2019-05-15T13:53:28.835Z,24
2019-05-15T13:58:28.892Z,24.7
2019-05-15T14:03:28.888Z,24.5
2019-05-15T14:08:31.802Z,22.8
2019-05-15T14:13:32.706Z,23.7
2019-05-15T14:18:34.838Z,23
2019-05-15T14:23:38.336Z,24.5
2019-05-15T14:28:38.883Z,24.2
2019-05-15T14:33:38.103Z,23.2
2019-05-15T14:38:39.085Z,24.2
2019-05-15T14:43:39.109Z,22.8
2019-05-15T14:48:39.309Z,22.8
2019-05-15T14:53:39.624Z,24.7
2019-05-15T14:58:39.827Z,21.9
2019-05-15T15:03:40.925Z,24.1
2019-05-15T15:08:40.429Z,24.6
2019-05-15T15:13:43.469Z,25.1
2019-05-15T15:18:48.247Z,24.6
2019-05-15T15:23:48.092Z,23.8
2019-05-15T15:28:48.816Z,24.7
2019-05-15T15:33:49.522Z,23.5
2019-05-15T15:38:50.742Z,25.3
2019-05-15T15:43:53.349Z,24.3
2019-05-15T15:48:59.202Z,23.4
2019-05-15T15:53:57.778Z,25.2
2019-05-15T15:58:59.886Z,26.3
2019-05-15T16:04:00.800Z,25.2
2019-05-15T16:09:01.981Z,25
2019-05-15T16:14:01.502Z,25.1
2019-05-15T16:19:02.709Z,25.4
2019-05-15T16:24:17.146Z,24.1
2019-05-15T16:29:12.881Z,24.5
2019-05-15T16:34:08.182Z,24.6
2019-05-15T16:39:25.717Z,27.1
2019-05-15T16:52:18.141Z,26
2019-05-15T16:57:28.739Z,25.9
2019-05-15T17:02:32.194Z,25
2019-05-15T17:08:01.419Z,26
2019-05-15T17:13:19.049Z,27.6
2019-05-15T17:18:19.497Z,28.4
2019-05-15T17:23:52.706Z,27.4
2019-05-15T17:29:13.491Z,28.2
2019-05-15T17:34:22.813Z,28.8
2019-05-15T17:39:36.881Z,28.9
2019-05-15T17:44:32.838Z,28.9
2019-05-15T17:49:32.874Z,29.1
2019-05-15T17:54:33.163Z,30.2
2019-05-15T17:59:37.822Z,29.3
2019-05-15T18:04:38.679Z,29.6
2019-05-15T18:09:51.323Z,30.4
2019-05-15T18:14:47.759Z,30.9
2019-05-15T18:19:53.364Z,31.1
2019-05-15T18:24:59.205Z,31.2
2019-05-15T18:30:02.455Z,31.5
2019-05-15T18:35:02.776Z,32.2
2019-05-15T18:40:11.486Z,32
2019-05-15T18:45:24.359Z,31.6
2019-05-15T18:50:22.964Z,31.6
2019-05-15T18:55:26.272Z,31.2
2019-05-15T19:00:29.396Z,32.4
2019-05-15T19:05:28.285Z,32.8
2019-05-15T19:10:33.787Z,33.9
2019-05-15T19:15:51.345Z,34.8
2019-05-15T19:20:50.614Z,36
2019-05-15T19:26:02.590Z,36.6
2019-05-15T19:31:02.789Z,38.2
2019-05-15T19:36:02.831Z,39.5
2019-05-15T19:41:06.086Z,40.2
2019-05-15T19:46:02.866Z,41.3
2019-05-15T19:51:03.132Z,43
2019-05-15T19:56:25.059Z,44.7
2019-05-15T20:01:32.025Z,45.3
2019-05-15T20:06:44.019Z,46.3
2019-05-15T20:11:47.893Z,47
2019-05-15T20:16:48.684Z,48.2
2019-05-15T20:21:49.838Z,48.9
2019-05-15T20:26:49.843Z,50
2019-05-15T20:31:50.710Z,50.5
2019-05-15T20:42:25.698Z,51.8
2019-05-15T20:47:53.410Z,52.3
2019-05-15T20:53:53.488Z,53.2
2019-05-15T21:00:02.924Z,53.6
2019-05-15T21:05:02.861Z,54.3
2019-05-15T21:10:02.831Z,54.7
2019-05-15T21:15:14.467Z,55.3
2019-05-15T21:20:14.543Z,55.6
2019-05-15T21:25:15.622Z,56.1
2019-05-15T21:30:18.651Z,56.3
2019-05-15T21:35:17.953Z,56.9
2019-05-15T21:40:17.134Z,57.5
2019-05-15T21:45:18.368Z,58
2019-05-15T21:50:19.272Z,58.7
2019-05-15T21:55:18.946Z,59.3
2019-05-15T22:00:18.766Z,59.8
2019-05-15T22:05:19.215Z,60
2019-05-15T22:10:21.769Z,60.8
2019-05-15T22:15:21.775Z,61.1
2019-05-15T22:20:21.851Z,61.5
2019-05-15T22:25:21.985Z,61.8
2019-05-15T22:30:21.835Z,62.4
2019-05-15T22:35:33.593Z,62.8
2019-05-15T22:48:13.070Z,63.5
2019-05-15T22:53:13.498Z,63.9
2019-05-15T22:58:13.489Z,64.2
2019-05-15T23:03:13.437Z,64.1
2019-05-15T23:08:13.717Z,64.6
2019-05-15T23:13:14.559Z,64.7
2019-05-15T23:18:15.028Z,65.3
2019-05-15T23:23:15.479Z,65.5
2019-05-15T23:28:15.793Z,65.3
2019-05-15T23:33:15.726Z,65.9
2019-05-15T23:38:15.766Z,66.3
2019-05-15T23:43:15.790Z,66.8
2019-05-15T23:48:15.783Z,67
2019-05-15T23:53:17.208Z,67.2
2019-05-15T23:58:18.639Z,67.1
